sensor_id;sensor_type;location;lat;lon;timestamp;temperature;humidity
18593;DHT22;9426;54.118;17.948;2023-12-20T00:01:41;5.60;99.90
18593;DHT22;9426;54.118;17.948;2023-12-20T00:07:05;5.60;99.90
18593;DHT22;9426;54.118;17.948;2023-12-20T00:12:30;5.60;99.90
18593;DHT22;9426;54.118;17.948;2023-12-20T00:17:54;5.60;99.90
18593;DHT22;9426;54.118;17.948;2023-12-20T00:23:17;5.60;99.90
18593;DHT22;9426;54.118;17.948;2023-12-20T00:28:42;5.60;99.90
18593;DHT22;9426;54.118;17.948;2023-12-20T00:34:06;5.60;99.90
18593;DHT22;9426;54.118;17.948;2023-12-20T00:39:31;5.70;99.90
18593;DHT22;9426;54.118;17.948;2023-12-20T00:45:00;5.60;99.90
18593;DHT22;9426;54.118;17.948;2023-12-20T00:50:24;5.50;99.90
18593;DHT22;9426;54.118;17.948;2023-12-20T00:55:49;5.40;99.90
18593;DHT22;9426;54.118;17.948;2023-12-20T01:01:15;5.20;99.90
18593;DHT22;9426;54.118;17.948;2023-12-20T01:06:45;5.10;99.90
18593;DHT22;9426;54.118;17.948;2023-12-20T01:12:08;5.00;99.90
18593;DHT22;9426;54.118;17.948;2023-12-20T01:17:34;5.00;99.90
18593;DHT22;9426;54.118;17.948;2023-12-20T01:22:58;4.90;99.90
18593;DHT22;9426;54.118;17.948;2023-12-20T01:28:21;4.80;99.90
18593;DHT22;9426;54.118;17.948;2023-12-20T01:33:47;4.70;99.90
18593;DHT22;9426;54.118;17.948;2023-12-20T01:39:10;4.70;99.90
18593;DHT22;9426;54.118;17.948;2023-12-20T01:44:37;4.60;99.90
18593;DHT22;9426;54.118;17.948;2023-12-20T01:50:01;4.50;99.90
18593;DHT22;9426;54.118;17.948;2023-12-20T01:55:26;4.40;99.90
18593;DHT22;9426;54.118;17.948;2023-12-20T02:00:50;4.40;99.90
18593;DHT22;9426;54.118;17.948;2023-12-20T02:06:22;4.40;99.90
18593;DHT22;9426;54.118;17.948;2023-12-20T02:11:46;4.30;99.90
18593;DHT22;9426;54.118;17.948;2023-12-20T02:17:10;4.30;99.90
18593;DHT22;9426;54.118;17.948;2023-12-20T02:22:34;4.20;99.90
18593;DHT22;9426;54.118;17.948;2023-12-20T02:27:58;4.00;99.90
18593;DHT22;9426;54.118;17.948;2023-12-20T02:33:22;4.00;99.90
18593;DHT22;9426;54.118;17.948;2023-12-20T02:38:47;3.90;99.90
18593;DHT22;9426;54.118;17.948;2023-12-20T02:44:13;3.90;99.90
18593;DHT22;9426;54.118;17.948;2023-12-20T02:49:37;3.80;99.90
18593;DHT22;9426;54.118;17.948;2023-12-20T02:55:02;3.80;99.90
18593;DHT22;9426;54.118;17.948;2023-12-20T03:00:25;3.80;99.90
18593;DHT22;9426;54.118;17.948;2023-12-20T03:05:49;3.80;99.90
18593;DHT22;9426;54.118;17.948;2023-12-20T03:11:14;3.70;99.90
18593;DHT22;9426;54.118;17.948;2023-12-20T03:16:37;3.60;99.90
18593;DHT22;9426;54.118;17.948;2023-12-20T03:22:01;3.60;99.90
18593;DHT22;9426;54.118;17.948;2023-12-20T03:27:26;3.60;99.90
18593;DHT22;9426;54.118;17.948;2023-12-20T03:32:49;3.60;99.90
18593;DHT22;9426;54.118;17.948;2023-12-20T03:38:13;3.50;99.90
18593;DHT22;9426;54.118;17.948;2023-12-20T03:43:38;3.50;99.90
18593;DHT22;9426;54.118;17.948;2023-12-20T03:49:01;3.50;99.90
18593;DHT22;9426;54.118;17.948;2023-12-20T03:54:25;3.40;99.90
18593;DHT22;9426;54.118;17.948;2023-12-20T03:59:50;3.30;99.90
18593;DHT22;9426;54.118;17.948;2023-12-20T04:05:14;3.30;99.90
18593;DHT22;9426;54.118;17.948;2023-12-20T04:10:37;3.30;99.90
18593;DHT22;9426;54.118;17.948;2023-12-20T04:16:02;3.30;99.90
18593;DHT22;9426;54.118;17.948;2023-12-20T04:21:26;3.20;99.90
18593;DHT22;9426;54.118;17.948;2023-12-20T04:26:50;3.20;99.90
18593;DHT22;9426;54.118;17.948;2023-12-20T04:32:15;3.20;99.90
18593;DHT22;9426;54.118;17.948;2023-12-20T04:37:39;3.10;99.90
18593;DHT22;9426;54.118;17.948;2023-12-20T04:43:03;3.00;99.90
18593;DHT22;9426;54.118;17.948;2023-12-20T04:48:28;3.00;99.90
18593;DHT22;9426;54.118;17.948;2023-12-20T04:53:51;2.90;99.90
18593;DHT22;9426;54.118;17.948;2023-12-20T04:59:14;2.90;99.90
18593;DHT22;9426;54.118;17.948;2023-12-20T05:04:39;2.80;99.90
18593;DHT22;9426;54.118;17.948;2023-12-20T05:10:04;2.80;99.90
18593;DHT22;9426;54.118;17.948;2023-12-20T05:15:28;2.70;99.90
18593;DHT22;9426;54.118;17.948;2023-12-20T05:20:53;2.60;99.90
18593;DHT22;9426;54.118;17.948;2023-12-20T05:26:18;2.50;99.90
18593;DHT22;9426;54.118;17.948;2023-12-20T05:31:42;2.60;99.90
18593;DHT22;9426;54.118;17.948;2023-12-20T05:37:07;2.60;99.90
18593;DHT22;9426;54.118;17.948;2023-12-20T05:42:31;2.60;99.90
18593;DHT22;9426;54.118;17.948;2023-12-20T05:47:56;2.70;99.90
18593;DHT22;9426;54.118;17.948;2023-12-20T05:53:25;2.60;99.90
18593;DHT22;9426;54.118;17.948;2023-12-20T05:58:57;2.50;99.90
18593;DHT22;9426;54.118;17.948;2023-12-20T06:04:22;2.30;99.90
18593;DHT22;9426;54.118;17.948;2023-12-20T06:09:46;2.40;99.90
18593;DHT22;9426;54.118;17.948;2023-12-20T06:15:10;2.40;99.90
18593;DHT22;9426;54.118;17.948;2023-12-20T06:20:36;2.40;99.90
18593;DHT22;9426;54.118;17.948;2023-12-20T06:26:01;2.50;99.90
18593;DHT22;9426;54.118;17.948;2023-12-20T06:31:25;2.50;99.90
18593;DHT22;9426;54.118;17.948;2023-12-20T06:36:49;2.50;99.90
18593;DHT22;9426;54.118;17.948;2023-12-20T06:42:13;2.50;99.90
18593;DHT22;9426;54.118;17.948;2023-12-20T06:47:37;2.40;99.90
18593;DHT22;9426;54.118;17.948;2023-12-20T06:53:01;2.40;99.90
18593;DHT22;9426;54.118;17.948;2023-12-20T06:58:30;2.40;99.90
18593;DHT22;9426;54.118;17.948;2023-12-20T07:03:54;2.30;99.90
18593;DHT22;9426;54.118;17.948;2023-12-20T07:09:18;2.30;99.90
18593;DHT22;9426;54.118;17.948;2023-12-20T07:14:43;2.10;99.90
18593;DHT22;9426;54.118;17.948;2023-12-20T07:20:07;2.00;99.90
18593;DHT22;9426;54.118;17.948;2023-12-20T07:25:32;1.90;99.90
18593;DHT22;9426;54.118;17.948;2023-12-20T07:30:58;1.90;99.90
18593;DHT22;9426;54.118;17.948;2023-12-20T07:36:21;1.80;99.90
18593;DHT22;9426;54.118;17.948;2023-12-20T07:41:45;1.80;99.90
18593;DHT22;9426;54.118;17.948;2023-12-20T07:47:10;1.80;99.90
18593;DHT22;9426;54.118;17.948;2023-12-20T07:52:37;1.80;99.90
18593;DHT22;9426;54.118;17.948;2023-12-20T07:58:01;1.90;99.90
18593;DHT22;9426;54.118;17.948;2023-12-20T08:03:25;1.90;99.90
18593;DHT22;9426;54.118;17.948;2023-12-20T08:08:49;2.00;99.90
18593;DHT22;9426;54.118;17.948;2023-12-20T08:14:15;2.00;99.90
18593;DHT22;9426;54.118;17.948;2023-12-20T08:19:40;2.10;99.90
18593;DHT22;9426;54.118;17.948;2023-12-20T08:25:05;2.20;99.90
18593;DHT22;9426;54.118;17.948;2023-12-20T08:30:29;2.20;99.90
18593;DHT22;9426;54.118;17.948;2023-12-20T08:35:54;2.30;99.90
18593;DHT22;9426;54.118;17.948;2023-12-20T08:41:18;2.50;99.90
18593;DHT22;9426;54.118;17.948;2023-12-20T08:46:43;2.60;99.90
18593;DHT22;9426;54.118;17.948;2023-12-20T08:52:08;2.60;99.90
18593;DHT22;9426;54.118;17.948;2023-12-20T08:57:31;2.60;99.90
18593;DHT22;9426;54.118;17.948;2023-12-20T09:02:55;2.60;99.90
18593;DHT22;9426;54.118;17.948;2023-12-20T09:08:21;2.70;99.90
18593;DHT22;9426;54.118;17.948;2023-12-20T09:13:44;2.90;99.90
18593;DHT22;9426;54.118;17.948;2023-12-20T09:19:10;2.90;99.90
18593;DHT22;9426;54.118;17.948;2023-12-20T09:24:35;3.00;99.90
18593;DHT22;9426;54.118;17.948;2023-12-20T09:29:59;3.10;99.90
18593;DHT22;9426;54.118;17.948;2023-12-20T09:35:24;3.10;99.90
18593;DHT22;9426;54.118;17.948;2023-12-20T09:40:49;3.30;99.90
18593;DHT22;9426;54.118;17.948;2023-12-20T09:46:16;3.40;99.90
18593;DHT22;9426;54.118;17.948;2023-12-20T09:51:42;3.50;99.90
18593;DHT22;9426;54.118;17.948;2023-12-20T09:57:08;3.50;99.90
18593;DHT22;9426;54.118;17.948;2023-12-20T10:02:32;3.50;99.90
18593;DHT22;9426;54.118;17.948;2023-12-20T10:07:58;3.60;99.90
18593;DHT22;9426;54.118;17.948;2023-12-20T10:13:24;3.60;99.90
18593;DHT22;9426;54.118;17.948;2023-12-20T10:18:48;3.60;99.90
18593;DHT22;9426;54.118;17.948;2023-12-20T10:24:17;3.60;99.90
18593;DHT22;9426;54.118;17.948;2023-12-20T10:29:42;3.60;99.90
18593;DHT22;9426;54.118;17.948;2023-12-20T10:35:06;3.60;99.90
18593;DHT22;9426;54.118;17.948;2023-12-20T10:40:30;3.60;99.90
18593;DHT22;9426;54.118;17.948;2023-12-20T10:45:55;3.70;99.90
18593;DHT22;9426;54.118;17.948;2023-12-20T10:51:19;3.70;99.90
18593;DHT22;9426;54.118;17.948;2023-12-20T10:56:43;3.70;99.90
18593;DHT22;9426;54.118;17.948;2023-12-20T11:02:09;3.70;99.90
18593;DHT22;9426;54.118;17.948;2023-12-20T11:07:36;3.80;99.90
18593;DHT22;9426;54.118;17.948;2023-12-20T11:13:08;3.50;99.90
18593;DHT22;9426;54.118;17.948;2023-12-20T11:18:35;3.90;99.90
18593;DHT22;9426;54.118;17.948;2023-12-20T11:23:59;3.90;99.90
18593;DHT22;9426;54.118;17.948;2023-12-20T11:29:45;3.90;99.90
18593;DHT22;9426;54.118;17.948;2023-12-20T11:35:19;3.90;99.90
18593;DHT22;9426;54.118;17.948;2023-12-20T11:40:43;3.90;99.90
18593;DHT22;9426;54.118;17.948;2023-12-20T11:46:08;3.80;99.90
18593;DHT22;9426;54.118;17.948;2023-12-20T11:51:33;3.80;99.90
18593;DHT22;9426;54.118;17.948;2023-12-20T11:56:57;3.70;99.90
18593;DHT22;9426;54.118;17.948;2023-12-20T12:02:20;3.70;99.90
18593;DHT22;9426;54.118;17.948;2023-12-20T12:07:47;3.70;99.90
18593;DHT22;9426;54.118;17.948;2023-12-20T12:13:10;3.70;99.90
18593;DHT22;9426;54.118;17.948;2023-12-20T12:18:36;3.70;99.90
18593;DHT22;9426;54.118;17.948;2023-12-20T12:24:10;3.70;99.90
18593;DHT22;9426;54.118;17.948;2023-12-20T12:29:34;3.70;99.90
18593;DHT22;9426;54.118;17.948;2023-12-20T12:34:58;3.70;99.90
18593;DHT22;9426;54.118;17.948;2023-12-20T12:40:23;3.60;99.90
18593;DHT22;9426;54.118;17.948;2023-12-20T12:45:47;3.60;99.90
18593;DHT22;9426;54.118;17.948;2023-12-20T12:51:10;3.60;99.90
18593;DHT22;9426;54.118;17.948;2023-12-20T12:56:37;3.50;99.90
18593;DHT22;9426;54.118;17.948;2023-12-20T13:02:00;3.60;99.90
18593;DHT22;9426;54.118;17.948;2023-12-20T13:07:24;3.50;99.90
18593;DHT22;9426;54.118;17.948;2023-12-20T13:12:49;3.40;99.90
18593;DHT22;9426;54.118;17.948;2023-12-20T13:18:14;3.70;99.90
18593;DHT22;9426;54.118;17.948;2023-12-20T13:23:37;3.70;99.90
18593;DHT22;9426;54.118;17.948;2023-12-20T13:29:03;3.70;99.90
18593;DHT22;9426;54.118;17.948;2023-12-20T13:34:26;3.70;99.90
18593;DHT22;9426;54.118;17.948;2023-12-20T13:39:50;3.40;99.90
18593;DHT22;9426;54.118;17.948;2023-12-20T13:45:15;3.60;99.90
18593;DHT22;9426;54.118;17.948;2023-12-20T13:50:39;3.60;99.90
18593;DHT22;9426;54.118;17.948;2023-12-20T13:56:03;3.60;99.90
18593;DHT22;9426;54.118;17.948;2023-12-20T14:01:28;3.60;99.90
18593;DHT22;9426;54.118;17.948;2023-12-20T14:06:52;3.60;99.90
18593;DHT22;9426;54.118;17.948;2023-12-20T14:12:16;3.60;99.90
18593;DHT22;9426;54.118;17.948;2023-12-20T14:17:42;3.50;99.90
18593;DHT22;9426;54.118;17.948;2023-12-20T14:23:06;3.60;99.90
18593;DHT22;9426;54.118;17.948;2023-12-20T14:28:29;3.60;99.90
18593;DHT22;9426;54.118;17.948;2023-12-20T14:33:54;3.60;99.90
18593;DHT22;9426;54.118;17.948;2023-12-20T14:39:18;3.60;99.90
18593;DHT22;9426;54.118;17.948;2023-12-20T14:44:41;3.60;99.90
18593;DHT22;9426;54.118;17.948;2023-12-20T14:50:07;3.60;99.90
18593;DHT22;9426;54.118;17.948;2023-12-20T14:55:31;3.70;99.90
18593;DHT22;9426;54.118;17.948;2023-12-20T15:00:56;3.70;99.90
18593;DHT22;9426;54.118;17.948;2023-12-20T15:06:20;3.80;99.90
18593;DHT22;9426;54.118;17.948;2023-12-20T15:11:44;3.70;99.90
18593;DHT22;9426;54.118;17.948;2023-12-20T15:17:08;3.70;99.90
18593;DHT22;9426;54.118;17.948;2023-12-20T15:22:33;3.70;99.90
18593;DHT22;9426;54.118;17.948;2023-12-20T15:27:57;3.80;99.90
18593;DHT22;9426;54.118;17.948;2023-12-20T15:33:20;3.70;99.90
18593;DHT22;9426;54.118;17.948;2023-12-20T15:38:45;3.60;99.90
18593;DHT22;9426;54.118;17.948;2023-12-20T15:44:09;3.50;99.90
18593;DHT22;9426;54.118;17.948;2023-12-20T15:49:33;3.20;99.90
18593;DHT22;9426;54.118;17.948;2023-12-20T15:54:58;3.00;99.90
18593;DHT22;9426;54.118;17.948;2023-12-20T16:00:21;2.90;99.90
18593;DHT22;9426;54.118;17.948;2023-12-20T16:05:45;2.80;99.90
18593;DHT22;9426;54.118;17.948;2023-12-20T16:11:10;2.50;99.90
18593;DHT22;9426;54.118;17.948;2023-12-20T16:16:34;2.30;99.90
18593;DHT22;9426;54.118;17.948;2023-12-20T16:21:57;2.30;99.90
18593;DHT22;9426;54.118;17.948;2023-12-20T16:27:24;2.40;99.90
18593;DHT22;9426;54.118;17.948;2023-12-20T16:32:47;2.40;99.90
18593;DHT22;9426;54.118;17.948;2023-12-20T16:38:12;2.40;99.90
18593;DHT22;9426;54.118;17.948;2023-12-20T16:43:37;2.50;99.90
18593;DHT22;9426;54.118;17.948;2023-12-20T16:49:01;2.60;99.90
18593;DHT22;9426;54.118;17.948;2023-12-20T16:54:24;2.70;99.90
18593;DHT22;9426;54.118;17.948;2023-12-20T16:59:49;2.70;99.90
18593;DHT22;9426;54.118;17.948;2023-12-20T17:05:13;2.70;99.90
18593;DHT22;9426;54.118;17.948;2023-12-20T17:10:37;2.70;99.90
18593;DHT22;9426;54.118;17.948;2023-12-20T17:16:02;2.80;99.90
18593;DHT22;9426;54.118;17.948;2023-12-20T17:21:25;2.80;99.90
18593;DHT22;9426;54.118;17.948;2023-12-20T17:26:49;2.80;99.90
18593;DHT22;9426;54.118;17.948;2023-12-20T17:32:14;2.80;99.90
18593;DHT22;9426;54.118;17.948;2023-12-20T17:37:38;2.80;99.90
18593;DHT22;9426;54.118;17.948;2023-12-20T17:43:01;2.70;99.90
18593;DHT22;9426;54.118;17.948;2023-12-20T17:48:26;2.80;99.90
18593;DHT22;9426;54.118;17.948;2023-12-20T17:53:50;2.70;99.90
18593;DHT22;9426;54.118;17.948;2023-12-20T17:59:14;2.70;99.90
18593;DHT22;9426;54.118;17.948;2023-12-20T18:04:39;2.80;99.90
18593;DHT22;9426;54.118;17.948;2023-12-20T18:10:05;2.70;99.90
18593;DHT22;9426;54.118;17.948;2023-12-20T18:15:29;2.70;99.90
18593;DHT22;9426;54.118;17.948;2023-12-20T18:20:54;2.70;99.90
18593;DHT22;9426;54.118;17.948;2023-12-20T18:26:20;2.60;99.90
18593;DHT22;9426;54.118;17.948;2023-12-20T18:31:43;2.50;99.90
18593;DHT22;9426;54.118;17.948;2023-12-20T18:37:09;2.40;99.90
18593;DHT22;9426;54.118;17.948;2023-12-20T18:42:34;2.30;99.90
18593;DHT22;9426;54.118;17.948;2023-12-20T18:47:58;2.20;99.90
18593;DHT22;9426;54.118;17.948;2023-12-20T18:53:23;2.20;99.90
18593;DHT22;9426;54.118;17.948;2023-12-20T18:58:48;2.00;99.90
18593;DHT22;9426;54.118;17.948;2023-12-20T19:04:11;1.90;99.90
18593;DHT22;9426;54.118;17.948;2023-12-20T19:09:37;1.50;99.90
18593;DHT22;9426;54.118;17.948;2023-12-20T19:15:01;1.20;99.90
18593;DHT22;9426;54.118;17.948;2023-12-20T19:29:27;0.90;99.90
18593;DHT22;9426;54.118;17.948;2023-12-20T19:36:04;1.00;99.90
18593;DHT22;9426;54.118;17.948;2023-12-20T19:41:28;1.00;99.90
18593;DHT22;9426;54.118;17.948;2023-12-20T19:46:54;1.00;99.90
18593;DHT22;9426;54.118;17.948;2023-12-20T20:08:24;0.50;99.90
18593;DHT22;9426;54.118;17.948;2023-12-20T20:13:50;0.90;99.90
18593;DHT22;9426;54.118;17.948;2023-12-20T20:48:30;2.30;99.90
18593;DHT22;9426;54.118;17.948;2023-12-20T20:54:35;0.60;99.90
18593;DHT22;9426;54.118;17.948;2023-12-20T21:01:12;0.70;99.90
18593;DHT22;9426;54.118;17.948;2023-12-20T21:07:53;0.20;99.90
18593;DHT22;9426;54.118;17.948;2023-12-20T21:14:18;0.70;99.90
18593;DHT22;9426;54.118;17.948;2023-12-20T21:20:40;0.70;99.90
18593;DHT22;9426;54.118;17.948;2023-12-20T21:27:04;0.80;99.90
18593;DHT22;9426;54.118;17.948;2023-12-20T21:33:26;0.80;99.90
18593;DHT22;9426;54.118;17.948;2023-12-20T21:38:53;0.80;99.90
18593;DHT22;9426;54.118;17.948;2023-12-20T21:44:21;0.90;99.90
18593;DHT22;9426;54.118;17.948;2023-12-20T21:56:05;1.00;99.90
18593;DHT22;9426;54.118;17.948;2023-12-20T22:01:55;1.20;99.90
18593;DHT22;9426;54.118;17.948;2023-12-20T22:07:21;1.20;99.90
18593;DHT22;9426;54.118;17.948;2023-12-20T22:12:44;1.20;99.90
18593;DHT22;9426;54.118;17.948;2023-12-20T22:18:09;1.20;99.90
18593;DHT22;9426;54.118;17.948;2023-12-20T22:23:33;1.30;99.90
18593;DHT22;9426;54.118;17.948;2023-12-20T22:28:56;1.30;99.90
18593;DHT22;9426;54.118;17.948;2023-12-20T22:34:21;1.30;99.90
18593;DHT22;9426;54.118;17.948;2023-12-20T22:39:45;1.30;99.90
18593;DHT22;9426;54.118;17.948;2023-12-20T22:45:10;1.30;99.90
18593;DHT22;9426;54.118;17.948;2023-12-20T22:50:35;1.30;99.90
18593;DHT22;9426;54.118;17.948;2023-12-20T22:55:58;1.30;99.90
18593;DHT22;9426;54.118;17.948;2023-12-20T23:01:22;1.40;99.90
18593;DHT22;9426;54.118;17.948;2023-12-20T23:06:47;1.40;99.90
18593;DHT22;9426;54.118;17.948;2023-12-20T23:12:10;1.40;99.90
18593;DHT22;9426;54.118;17.948;2023-12-20T23:17:34;1.40;99.90
18593;DHT22;9426;54.118;17.948;2023-12-20T23:22:59;1.40;99.90
18593;DHT22;9426;54.118;17.948;2023-12-20T23:28:22;1.40;99.90
18593;DHT22;9426;54.118;17.948;2023-12-20T23:33:46;1.40;99.90
18593;DHT22;9426;54.118;17.948;2023-12-20T23:39:11;1.40;99.90
18593;DHT22;9426;54.118;17.948;2023-12-20T23:44:35;1.40;99.90
18593;DHT22;9426;54.118;17.948;2023-12-20T23:49:59;1.40;99.90
18593;DHT22;9426;54.118;17.948;2023-12-20T23:55:24;1.40;99.90
